sensor_id;sensor_type;location;lat;lon;timestamp;temperature;humidity
46217;DHT22;47258;59.424;13.482;2022-12-18T00:01:02;2.90;99.90
46217;DHT22;47258;59.424;13.482;2022-12-18T00:03:32;2.90;99.90
46217;DHT22;47258;59.424;13.482;2022-12-18T00:05:59;2.90;99.90
46217;DHT22;47258;59.424;13.482;2022-12-18T00:08:26;2.90;99.90
46217;DHT22;47258;59.424;13.482;2022-12-18T00:10:53;2.90;99.90
46217;DHT22;47258;59.424;13.482;2022-12-18T00:13:20;2.90;99.90
46217;DHT22;47258;59.424;13.482;2022-12-18T00:15:49;2.80;99.90
46217;DHT22;47258;59.424;13.482;2022-12-18T00:18:16;2.80;99.90
46217;DHT22;47258;59.424;13.482;2022-12-18T00:20:43;2.80;99.90
46217;DHT22;47258;59.424;13.482;2022-12-18T00:23:10;2.80;99.90
46217;DHT22;47258;59.424;13.482;2022-12-18T00:25:37;2.80;99.90
46217;DHT22;47258;59.424;13.482;2022-12-18T00:28:04;2.80;99.90
46217;DHT22;47258;59.424;13.482;2022-12-18T00:30:31;2.80;99.90
46217;DHT22;47258;59.424;13.482;2022-12-18T00:33:00;2.80;99.90
46217;DHT22;47258;59.424;13.482;2022-12-18T00:35:27;2.80;99.90
46217;DHT22;47258;59.424;13.482;2022-12-18T00:37:54;2.80;99.90
46217;DHT22;47258;59.424;13.482;2022-12-18T00:40:21;2.80;99.90
46217;DHT22;47258;59.424;13.482;2022-12-18T00:42:48;2.80;99.90
46217;DHT22;47258;59.424;13.482;2022-12-18T00:45:23;2.80;99.90
46217;DHT22;47258;59.424;13.482;2022-12-18T00:47:51;2.80;99.90
46217;DHT22;47258;59.424;13.482;2022-12-18T00:50:20;2.80;99.90
46217;DHT22;47258;59.424;13.482;2022-12-18T00:52:47;2.80;99.90
46217;DHT22;47258;59.424;13.482;2022-12-18T00:55:14;2.80;99.90
46217;DHT22;47258;59.424;13.482;2022-12-18T00:57:42;2.80;99.90
46217;DHT22;47258;59.424;13.482;2022-12-18T01:00:12;2.80;99.90
46217;DHT22;47258;59.424;13.482;2022-12-18T01:02:40;2.80;99.90
46217;DHT22;47258;59.424;13.482;2022-12-18T01:05:08;2.80;99.90
46217;DHT22;47258;59.424;13.482;2022-12-18T01:07:38;2.80;99.90
46217;DHT22;47258;59.424;13.482;2022-12-18T01:10:06;2.80;99.90
46217;DHT22;47258;59.424;13.482;2022-12-18T01:12:34;2.80;99.90
46217;DHT22;47258;59.424;13.482;2022-12-18T01:15:01;2.80;99.90
46217;DHT22;47258;59.424;13.482;2022-12-18T01:17:28;2.80;99.90
46217;DHT22;47258;59.424;13.482;2022-12-18T01:19:55;2.80;99.90
46217;DHT22;47258;59.424;13.482;2022-12-18T01:22:22;2.80;99.90
46217;DHT22;47258;59.424;13.482;2022-12-18T01:24:51;2.80;99.90
46217;DHT22;47258;59.424;13.482;2022-12-18T01:27:18;2.80;99.90
46217;DHT22;47258;59.424;13.482;2022-12-18T01:29:45;2.70;99.90
46217;DHT22;47258;59.424;13.482;2022-12-18T01:32:12;2.70;99.90
46217;DHT22;47258;59.424;13.482;2022-12-18T01:34:39;2.70;99.90
46217;DHT22;47258;59.424;13.482;2022-12-18T01:37:06;2.70;99.90
46217;DHT22;47258;59.424;13.482;2022-12-18T01:39:33;2.70;99.90
46217;DHT22;47258;59.424;13.482;2022-12-18T01:42:09;2.70;99.90
46217;DHT22;47258;59.424;13.482;2022-12-18T01:45:05;2.70;99.90
46217;DHT22;47258;59.424;13.482;2022-12-18T01:47:39;2.70;99.90
46217;DHT22;47258;59.424;13.482;2022-12-18T01:50:11;2.70;99.90
46217;DHT22;47258;59.424;13.482;2022-12-18T01:52:41;2.70;99.90
46217;DHT22;47258;59.424;13.482;2022-12-18T01:55:09;2.70;99.90
46217;DHT22;47258;59.424;13.482;2022-12-18T01:57:38;2.70;99.90
46217;DHT22;47258;59.424;13.482;2022-12-18T02:00:09;2.70;99.90
46217;DHT22;47258;59.424;13.482;2022-12-18T02:02:37;2.70;99.90
46217;DHT22;47258;59.424;13.482;2022-12-18T02:05:06;2.70;99.90
46217;DHT22;47258;59.424;13.482;2022-12-18T02:07:40;2.70;99.90
46217;DHT22;47258;59.424;13.482;2022-12-18T02:10:15;2.70;99.90
46217;DHT22;47258;59.424;13.482;2022-12-18T02:12:49;2.70;99.90
46217;DHT22;47258;59.424;13.482;2022-12-18T02:15:25;2.70;99.90
46217;DHT22;47258;59.424;13.482;2022-12-18T02:17:57;2.70;99.90
46217;DHT22;47258;59.424;13.482;2022-12-18T02:20:34;2.70;99.90
46217;DHT22;47258;59.424;13.482;2022-12-18T02:23:09;2.70;99.90
46217;DHT22;47258;59.424;13.482;2022-12-18T02:25:54;2.70;99.90
46217;DHT22;47258;59.424;13.482;2022-12-18T02:28:30;2.70;99.90
46217;DHT22;47258;59.424;13.482;2022-12-18T02:31:00;2.70;99.90
46217;DHT22;47258;59.424;13.482;2022-12-18T02:33:29;2.70;99.90
46217;DHT22;47258;59.424;13.482;2022-12-18T02:35:57;2.70;99.90
46217;DHT22;47258;59.424;13.482;2022-12-18T02:38:26;2.70;99.90
46217;DHT22;47258;59.424;13.482;2022-12-18T02:40:55;2.70;99.90
46217;DHT22;47258;59.424;13.482;2022-12-18T02:43:23;2.70;99.90
46217;DHT22;47258;59.424;13.482;2022-12-18T02:45:52;2.70;99.90
46217;DHT22;47258;59.424;13.482;2022-12-18T02:48:24;2.70;99.90
46217;DHT22;47258;59.424;13.482;2022-12-18T02:50:56;2.70;99.90
46217;DHT22;47258;59.424;13.482;2022-12-18T02:53:28;2.70;99.90
46217;DHT22;47258;59.424;13.482;2022-12-18T02:56:05;2.70;99.90
46217;DHT22;47258;59.424;13.482;2022-12-18T02:58:39;2.70;99.90
46217;DHT22;47258;59.424;13.482;2022-12-18T03:01:10;2.70;99.90
46217;DHT22;47258;59.424;13.482;2022-12-18T03:03:41;2.70;99.90
46217;DHT22;47258;59.424;13.482;2022-12-18T03:06:14;2.70;99.90
46217;DHT22;47258;59.424;13.482;2022-12-18T03:08:47;2.70;99.90
46217;DHT22;47258;59.424;13.482;2022-12-18T03:11:16;2.70;99.90
46217;DHT22;47258;59.424;13.482;2022-12-18T03:14:04;2.70;99.90
46217;DHT22;47258;59.424;13.482;2022-12-18T03:16:34;2.70;99.90
46217;DHT22;47258;59.424;13.482;2022-12-18T03:19:06;2.70;99.90
46217;DHT22;47258;59.424;13.482;2022-12-18T03:21:38;2.60;99.90
46217;DHT22;47258;59.424;13.482;2022-12-18T03:24:08;2.70;99.90
46217;DHT22;47258;59.424;13.482;2022-12-18T03:26:42;2.70;99.90
46217;DHT22;47258;59.424;13.482;2022-12-18T03:29:15;2.70;99.90
46217;DHT22;47258;59.424;13.482;2022-12-18T03:31:49;2.70;99.90
46217;DHT22;47258;59.424;13.482;2022-12-18T03:34:22;2.70;99.90
46217;DHT22;47258;59.424;13.482;2022-12-18T03:36:50;2.70;99.90
46217;DHT22;47258;59.424;13.482;2022-12-18T03:39:17;2.70;99.90
46217;DHT22;47258;59.424;13.482;2022-12-18T03:41:49;2.70;99.90
46217;DHT22;47258;59.424;13.482;2022-12-18T03:44:22;2.70;99.90
46217;DHT22;47258;59.424;13.482;2022-12-18T03:46:56;2.70;99.90
46217;DHT22;47258;59.424;13.482;2022-12-18T03:49:27;2.80;99.90
46217;DHT22;47258;59.424;13.482;2022-12-18T03:52:02;2.80;99.90
46217;DHT22;47258;59.424;13.482;2022-12-18T03:54:30;2.80;99.90
46217;DHT22;47258;59.424;13.482;2022-12-18T03:57:04;2.80;99.90
46217;DHT22;47258;59.424;13.482;2022-12-18T03:59:32;2.80;99.90
46217;DHT22;47258;59.424;13.482;2022-12-18T04:02:00;2.80;99.90
46217;DHT22;47258;59.424;13.482;2022-12-18T04:04:28;2.80;99.90
46217;DHT22;47258;59.424;13.482;2022-12-18T04:06:57;2.80;99.90
46217;DHT22;47258;59.424;13.482;2022-12-18T04:09:25;2.80;99.90
46217;DHT22;47258;59.424;13.482;2022-12-18T04:11:53;2.80;99.90
46217;DHT22;47258;59.424;13.482;2022-12-18T04:14:22;2.80;99.90
46217;DHT22;47258;59.424;13.482;2022-12-18T04:16:49;2.80;99.90
46217;DHT22;47258;59.424;13.482;2022-12-18T04:19:16;2.80;99.90
46217;DHT22;47258;59.424;13.482;2022-12-18T04:21:43;2.80;99.90
46217;DHT22;47258;59.424;13.482;2022-12-18T04:24:10;2.80;99.90
46217;DHT22;47258;59.424;13.482;2022-12-18T04:26:37;2.80;99.90
46217;DHT22;47258;59.424;13.482;2022-12-18T04:29:04;2.90;99.90
46217;DHT22;47258;59.424;13.482;2022-12-18T04:31:32;2.80;99.90
46217;DHT22;47258;59.424;13.482;2022-12-18T04:34:00;2.90;99.90
46217;DHT22;47258;59.424;13.482;2022-12-18T04:36:27;2.90;99.90
46217;DHT22;47258;59.424;13.482;2022-12-18T04:38:54;2.90;99.90
46217;DHT22;47258;59.424;13.482;2022-12-18T04:41:21;2.90;99.90
46217;DHT22;47258;59.424;13.482;2022-12-18T04:43:48;2.80;99.90
46217;DHT22;47258;59.424;13.482;2022-12-18T04:46:15;2.80;99.90
46217;DHT22;47258;59.424;13.482;2022-12-18T04:48:45;2.80;99.90
46217;DHT22;47258;59.424;13.482;2022-12-18T04:51:13;2.80;99.90
46217;DHT22;47258;59.424;13.482;2022-12-18T04:53:40;2.80;99.90
46217;DHT22;47258;59.424;13.482;2022-12-18T04:56:09;2.80;99.90
46217;DHT22;47258;59.424;13.482;2022-12-18T04:58:37;2.80;99.90
46217;DHT22;47258;59.424;13.482;2022-12-18T05:01:05;2.80;99.90
46217;DHT22;47258;59.424;13.482;2022-12-18T05:03:33;2.80;99.90
46217;DHT22;47258;59.424;13.482;2022-12-18T05:06:03;2.80;99.90
46217;DHT22;47258;59.424;13.482;2022-12-18T05:08:30;2.80;99.90
46217;DHT22;47258;59.424;13.482;2022-12-18T05:11:02;2.80;99.90
46217;DHT22;47258;59.424;13.482;2022-12-18T05:13:30;2.80;99.90
46217;DHT22;47258;59.424;13.482;2022-12-18T05:15:57;2.80;99.90
46217;DHT22;47258;59.424;13.482;2022-12-18T05:18:24;2.90;99.90
46217;DHT22;47258;59.424;13.482;2022-12-18T05:20:53;2.90;99.90
46217;DHT22;47258;59.424;13.482;2022-12-18T05:23:22;2.90;99.90
46217;DHT22;47258;59.424;13.482;2022-12-18T05:25:51;2.90;99.90
46217;DHT22;47258;59.424;13.482;2022-12-18T05:28:19;2.90;99.90
46217;DHT22;47258;59.424;13.482;2022-12-18T05:30:49;2.90;99.90
46217;DHT22;47258;59.424;13.482;2022-12-18T05:33:17;2.90;99.90
46217;DHT22;47258;59.424;13.482;2022-12-18T05:35:44;2.90;99.90
46217;DHT22;47258;59.424;13.482;2022-12-18T05:38:16;2.90;99.90
46217;DHT22;47258;59.424;13.482;2022-12-18T05:40:45;2.90;99.90
46217;DHT22;47258;59.424;13.482;2022-12-18T05:43:12;2.90;99.90
46217;DHT22;47258;59.424;13.482;2022-12-18T05:45:39;2.90;99.90
46217;DHT22;47258;59.424;13.482;2022-12-18T05:48:07;2.90;99.90
46217;DHT22;47258;59.424;13.482;2022-12-18T05:50:35;2.90;99.90
46217;DHT22;47258;59.424;13.482;2022-12-18T05:53:02;2.90;99.90
46217;DHT22;47258;59.424;13.482;2022-12-18T05:55:33;2.90;99.90
46217;DHT22;47258;59.424;13.482;2022-12-18T05:58:02;2.90;99.90
46217;DHT22;47258;59.424;13.482;2022-12-18T06:00:29;2.90;99.90
46217;DHT22;47258;59.424;13.482;2022-12-18T06:02:57;2.90;99.90
46217;DHT22;47258;59.424;13.482;2022-12-18T06:05:25;2.90;99.90
46217;DHT22;47258;59.424;13.482;2022-12-18T06:07:52;2.90;99.90
46217;DHT22;47258;59.424;13.482;2022-12-18T06:10:19;2.90;99.90
46217;DHT22;47258;59.424;13.482;2022-12-18T06:12:46;2.90;99.90
46217;DHT22;47258;59.424;13.482;2022-12-18T06:15:14;2.90;99.90
46217;DHT22;47258;59.424;13.482;2022-12-18T06:17:41;2.90;99.90
46217;DHT22;47258;59.424;13.482;2022-12-18T06:20:09;2.80;99.90
46217;DHT22;47258;59.424;13.482;2022-12-18T06:22:36;2.80;99.90
46217;DHT22;47258;59.424;13.482;2022-12-18T06:25:04;2.80;99.90
46217;DHT22;47258;59.424;13.482;2022-12-18T06:27:32;2.80;99.90
46217;DHT22;47258;59.424;13.482;2022-12-18T06:29:59;2.80;99.90
46217;DHT22;47258;59.424;13.482;2022-12-18T06:32:27;2.80;99.90
46217;DHT22;47258;59.424;13.482;2022-12-18T06:34:55;2.70;99.90
46217;DHT22;47258;59.424;13.482;2022-12-18T06:37:22;2.70;99.90
46217;DHT22;47258;59.424;13.482;2022-12-18T06:39:51;2.80;99.90
46217;DHT22;47258;59.424;13.482;2022-12-18T06:42:18;2.80;99.90
46217;DHT22;47258;59.424;13.482;2022-12-18T06:44:45;2.80;99.90
46217;DHT22;47258;59.424;13.482;2022-12-18T06:47:12;2.80;99.90
46217;DHT22;47258;59.424;13.482;2022-12-18T06:49:41;2.80;99.90
46217;DHT22;47258;59.424;13.482;2022-12-18T06:52:08;2.80;99.90
46217;DHT22;47258;59.424;13.482;2022-12-18T06:54:35;2.90;99.90
46217;DHT22;47258;59.424;13.482;2022-12-18T06:57:02;2.90;99.90
46217;DHT22;47258;59.424;13.482;2022-12-18T06:59:29;2.90;99.90
46217;DHT22;47258;59.424;13.482;2022-12-18T07:01:56;2.90;99.90
46217;DHT22;47258;59.424;13.482;2022-12-18T07:04:28;2.90;99.90
46217;DHT22;47258;59.424;13.482;2022-12-18T07:06:56;2.90;99.90
46217;DHT22;47258;59.424;13.482;2022-12-18T07:09:24;2.90;99.90
46217;DHT22;47258;59.424;13.482;2022-12-18T07:11:51;2.90;99.90
46217;DHT22;47258;59.424;13.482;2022-12-18T07:14:18;3.00;99.90
46217;DHT22;47258;59.424;13.482;2022-12-18T07:16:45;3.00;99.90
46217;DHT22;47258;59.424;13.482;2022-12-18T07:19:12;3.00;99.90
46217;DHT22;47258;59.424;13.482;2022-12-18T07:21:39;3.00;99.90
46217;DHT22;47258;59.424;13.482;2022-12-18T07:24:08;3.10;99.90
46217;DHT22;47258;59.424;13.482;2022-12-18T07:26:35;3.00;99.90
46217;DHT22;47258;59.424;13.482;2022-12-18T07:29:02;3.00;99.90
46217;DHT22;47258;59.424;13.482;2022-12-18T07:31:29;3.00;99.90
46217;DHT22;47258;59.424;13.482;2022-12-18T07:33:56;3.00;99.90
46217;DHT22;47258;59.424;13.482;2022-12-18T07:36:23;3.00;99.90
46217;DHT22;47258;59.424;13.482;2022-12-18T07:38:50;3.00;99.90
46217;DHT22;47258;59.424;13.482;2022-12-18T07:41:20;3.00;99.90
46217;DHT22;47258;59.424;13.482;2022-12-18T07:43:47;2.90;99.90
46217;DHT22;47258;59.424;13.482;2022-12-18T07:46:15;2.90;99.90
46217;DHT22;47258;59.424;13.482;2022-12-18T07:48:43;2.90;99.90
46217;DHT22;47258;59.424;13.482;2022-12-18T07:51:12;2.90;99.90
46217;DHT22;47258;59.424;13.482;2022-12-18T07:53:39;2.90;99.90
46217;DHT22;47258;59.424;13.482;2022-12-18T07:56:08;2.90;99.90
46217;DHT22;47258;59.424;13.482;2022-12-18T07:58:37;3.00;99.90
46217;DHT22;47258;59.424;13.482;2022-12-18T08:01:05;3.00;99.90
46217;DHT22;47258;59.424;13.482;2022-12-18T08:03:32;3.00;99.90
46217;DHT22;47258;59.424;13.482;2022-12-18T08:06:00;3.00;99.90
46217;DHT22;47258;59.424;13.482;2022-12-18T08:08:28;3.00;99.90
46217;DHT22;47258;59.424;13.482;2022-12-18T08:10:55;3.00;99.90
46217;DHT22;47258;59.424;13.482;2022-12-18T08:13:23;3.10;99.90
46217;DHT22;47258;59.424;13.482;2022-12-18T08:15:57;3.10;99.90
46217;DHT22;47258;59.424;13.482;2022-12-18T08:18:24;3.10;99.90
46217;DHT22;47258;59.424;13.482;2022-12-18T08:20:51;3.10;99.90
46217;DHT22;47258;59.424;13.482;2022-12-18T08:23:18;3.20;99.90
46217;DHT22;47258;59.424;13.482;2022-12-18T08:25:45;3.20;99.90
46217;DHT22;47258;59.424;13.482;2022-12-18T08:28:13;3.20;99.90
46217;DHT22;47258;59.424;13.482;2022-12-18T08:30:42;3.20;99.90
46217;DHT22;47258;59.424;13.482;2022-12-18T08:33:11;3.20;99.90
46217;DHT22;47258;59.424;13.482;2022-12-18T08:35:38;3.20;99.90
46217;DHT22;47258;59.424;13.482;2022-12-18T08:38:05;3.20;99.90
46217;DHT22;47258;59.424;13.482;2022-12-18T08:40:32;3.20;99.90
46217;DHT22;47258;59.424;13.482;2022-12-18T08:43:00;3.20;99.90
46217;DHT22;47258;59.424;13.482;2022-12-18T08:45:44;3.20;99.90
46217;DHT22;47258;59.424;13.482;2022-12-18T08:48:12;3.30;99.90
46217;DHT22;47258;59.424;13.482;2022-12-18T08:50:40;3.30;99.90
46217;DHT22;47258;59.424;13.482;2022-12-18T08:53:07;3.30;99.90
46217;DHT22;47258;59.424;13.482;2022-12-18T08:55:34;3.40;99.90
46217;DHT22;47258;59.424;13.482;2022-12-18T08:58:01;3.40;99.90
46217;DHT22;47258;59.424;13.482;2022-12-18T09:00:28;3.40;99.90
46217;DHT22;47258;59.424;13.482;2022-12-18T09:02:55;3.40;99.90
46217;DHT22;47258;59.424;13.482;2022-12-18T09:05:24;3.40;99.90
46217;DHT22;47258;59.424;13.482;2022-12-18T09:07:51;3.50;99.90
46217;DHT22;47258;59.424;13.482;2022-12-18T09:10:18;3.50;99.90
46217;DHT22;47258;59.424;13.482;2022-12-18T09:12:45;3.50;99.90
46217;DHT22;47258;59.424;13.482;2022-12-18T09:15:12;3.50;99.90
46217;DHT22;47258;59.424;13.482;2022-12-18T09:17:39;3.50;99.90
46217;DHT22;47258;59.424;13.482;2022-12-18T09:20:07;3.50;99.90
46217;DHT22;47258;59.424;13.482;2022-12-18T09:22:36;3.50;99.90
46217;DHT22;47258;59.424;13.482;2022-12-18T09:25:04;3.50;99.90
46217;DHT22;47258;59.424;13.482;2022-12-18T09:27:33;3.40;99.90
46217;DHT22;47258;59.424;13.482;2022-12-18T09:30:00;3.40;99.90
46217;DHT22;47258;59.424;13.482;2022-12-18T09:32:27;3.30;99.90
46217;DHT22;47258;59.424;13.482;2022-12-18T09:34:54;3.30;99.90
46217;DHT22;47258;59.424;13.482;2022-12-18T09:37:21;3.30;99.90
46217;DHT22;47258;59.424;13.482;2022-12-18T09:39:50;3.30;99.90
46217;DHT22;47258;59.424;13.482;2022-12-18T09:42:20;3.30;99.90
46217;DHT22;47258;59.424;13.482;2022-12-18T09:44:50;3.30;99.90
46217;DHT22;47258;59.424;13.482;2022-12-18T09:47:19;3.30;99.90
46217;DHT22;47258;59.424;13.482;2022-12-18T09:49:52;3.30;99.90
46217;DHT22;47258;59.424;13.482;2022-12-18T09:52:25;3.40;99.90
46217;DHT22;47258;59.424;13.482;2022-12-18T09:54:58;3.40;99.90
46217;DHT22;47258;59.424;13.482;2022-12-18T09:57:28;3.50;99.90
46217;DHT22;47258;59.424;13.482;2022-12-18T10:00:03;3.50;99.90
46217;DHT22;47258;59.424;13.482;2022-12-18T10:02:31;3.50;99.90
46217;DHT22;47258;59.424;13.482;2022-12-18T10:05:05;3.50;99.90
46217;DHT22;47258;59.424;13.482;2022-12-18T10:07:45;3.60;99.90
46217;DHT22;47258;59.424;13.482;2022-12-18T10:10:23;3.60;99.90
46217;DHT22;47258;59.424;13.482;2022-12-18T10:12:58;3.50;99.90
46217;DHT22;47258;59.424;13.482;2022-12-18T10:15:32;3.50;99.90
46217;DHT22;47258;59.424;13.482;2022-12-18T10:18:10;3.50;99.90
46217;DHT22;47258;59.424;13.482;2022-12-18T10:20:44;3.50;99.90
46217;DHT22;47258;59.424;13.482;2022-12-18T10:23:19;3.50;99.90
46217;DHT22;47258;59.424;13.482;2022-12-18T10:25:53;3.60;99.90
46217;DHT22;47258;59.424;13.482;2022-12-18T10:28:22;3.60;99.90
46217;DHT22;47258;59.424;13.482;2022-12-18T10:30:50;3.50;99.90
46217;DHT22;47258;59.424;13.482;2022-12-18T10:33:20;3.50;99.90
46217;DHT22;47258;59.424;13.482;2022-12-18T10:35:51;3.50;99.90
46217;DHT22;47258;59.424;13.482;2022-12-18T10:38:24;3.50;99.90
46217;DHT22;47258;59.424;13.482;2022-12-18T10:40:56;3.40;99.90
46217;DHT22;47258;59.424;13.482;2022-12-18T10:43:25;3.40;99.90
46217;DHT22;47258;59.424;13.482;2022-12-18T10:46:14;3.40;99.90
46217;DHT22;47258;59.424;13.482;2022-12-18T10:48:52;3.40;99.90
46217;DHT22;47258;59.424;13.482;2022-12-18T10:51:22;3.50;99.90
46217;DHT22;47258;59.424;13.482;2022-12-18T10:53:54;3.50;99.90
46217;DHT22;47258;59.424;13.482;2022-12-18T10:56:25;3.50;99.90
46217;DHT22;47258;59.424;13.482;2022-12-18T10:58:58;3.50;99.90
46217;DHT22;47258;59.424;13.482;2022-12-18T11:01:25;3.50;99.90
46217;DHT22;47258;59.424;13.482;2022-12-18T11:04:02;3.60;99.90
46217;DHT22;47258;59.424;13.482;2022-12-18T11:06:29;3.80;99.90
46217;DHT22;47258;59.424;13.482;2022-12-18T11:09:01;3.80;99.90
46217;DHT22;47258;59.424;13.482;2022-12-18T11:11:32;3.80;99.90
46217;DHT22;47258;59.424;13.482;2022-12-18T11:14:02;3.90;99.90
46217;DHT22;47258;59.424;13.482;2022-12-18T11:16:31;4.00;99.90
46217;DHT22;47258;59.424;13.482;2022-12-18T11:19:18;4.00;99.90
46217;DHT22;47258;59.424;13.482;2022-12-18T11:21:46;4.10;99.90
46217;DHT22;47258;59.424;13.482;2022-12-18T11:24:20;4.00;99.90
46217;DHT22;47258;59.424;13.482;2022-12-18T11:26:53;4.00;99.90
46217;DHT22;47258;59.424;13.482;2022-12-18T11:29:24;4.00;99.90
46217;DHT22;47258;59.424;13.482;2022-12-18T11:32:27;4.00;99.90
46217;DHT22;47258;59.424;13.482;2022-12-18T11:35:02;4.00;99.90
46217;DHT22;47258;59.424;13.482;2022-12-18T11:37:31;4.00;99.90
46217;DHT22;47258;59.424;13.482;2022-12-18T11:40:02;4.00;99.90
46217;DHT22;47258;59.424;13.482;2022-12-18T11:42:37;4.00;99.90
46217;DHT22;47258;59.424;13.482;2022-12-18T11:45:25;4.00;99.90
46217;DHT22;47258;59.424;13.482;2022-12-18T11:47:57;4.00;99.90
46217;DHT22;47258;59.424;13.482;2022-12-18T11:50:29;4.00;99.90
46217;DHT22;47258;59.424;13.482;2022-12-18T11:52:58;4.00;99.90
46217;DHT22;47258;59.424;13.482;2022-12-18T11:55:32;4.00;99.90
46217;DHT22;47258;59.424;13.482;2022-12-18T11:58:11;4.00;99.90
46217;DHT22;47258;59.424;13.482;2022-12-18T12:00:46;4.00;99.90
46217;DHT22;47258;59.424;13.482;2022-12-18T12:03:24;4.00;99.90
46217;DHT22;47258;59.424;13.482;2022-12-18T12:06:04;4.00;99.90
46217;DHT22;47258;59.424;13.482;2022-12-18T12:08:43;4.00;99.90
46217;DHT22;47258;59.424;13.482;2022-12-18T12:11:18;4.00;99.90
46217;DHT22;47258;59.424;13.482;2022-12-18T12:14:00;4.00;99.90
46217;DHT22;47258;59.424;13.482;2022-12-18T12:16:37;4.00;99.90
46217;DHT22;47258;59.424;13.482;2022-12-18T12:19:20;4.00;99.90
46217;DHT22;47258;59.424;13.482;2022-12-18T12:21:55;4.00;99.90
46217;DHT22;47258;59.424;13.482;2022-12-18T12:24:36;4.00;99.90
46217;DHT22;47258;59.424;13.482;2022-12-18T12:27:11;4.00;99.90
46217;DHT22;47258;59.424;13.482;2022-12-18T12:29:49;4.00;99.90
46217;DHT22;47258;59.424;13.482;2022-12-18T12:32:35;3.90;99.90
46217;DHT22;47258;59.424;13.482;2022-12-18T12:35:16;3.90;99.90
46217;DHT22;47258;59.424;13.482;2022-12-18T12:37:47;3.90;99.90
46217;DHT22;47258;59.424;13.482;2022-12-18T12:40:18;3.90;99.90
46217;DHT22;47258;59.424;13.482;2022-12-18T12:42:49;3.90;99.90
46217;DHT22;47258;59.424;13.482;2022-12-18T12:45:41;3.90;99.90
46217;DHT22;47258;59.424;13.482;2022-12-18T12:48:16;3.90;99.90
46217;DHT22;47258;59.424;13.482;2022-12-18T12:50:45;3.80;99.90
46217;DHT22;47258;59.424;13.482;2022-12-18T12:53:23;3.90;99.90
46217;DHT22;47258;59.424;13.482;2022-12-18T12:55:52;3.80;99.90
46217;DHT22;47258;59.424;13.482;2022-12-18T12:58:26;3.80;99.90
46217;DHT22;47258;59.424;13.482;2022-12-18T13:01:04;3.80;99.90
46217;DHT22;47258;59.424;13.482;2022-12-18T13:03:41;3.80;99.90
46217;DHT22;47258;59.424;13.482;2022-12-18T13:06:14;3.80;99.90
46217;DHT22;47258;59.424;13.482;2022-12-18T13:08:56;3.80;99.90
46217;DHT22;47258;59.424;13.482;2022-12-18T13:11:41;3.70;99.90
46217;DHT22;47258;59.424;13.482;2022-12-18T13:14:29;3.70;99.90
46217;DHT22;47258;59.424;13.482;2022-12-18T13:17:16;3.60;99.90
46217;DHT22;47258;59.424;13.482;2022-12-18T13:19:44;3.50;99.90
46217;DHT22;47258;59.424;13.482;2022-12-18T13:22:21;3.40;99.90
46217;DHT22;47258;59.424;13.482;2022-12-18T13:24:49;3.40;99.90
46217;DHT22;47258;59.424;13.482;2022-12-18T13:30:44;3.40;99.90
46217;DHT22;47258;59.424;13.482;2022-12-18T13:33:39;3.30;99.90
46217;DHT22;47258;59.424;13.482;2022-12-18T13:36:14;3.30;99.90
46217;DHT22;47258;59.424;13.482;2022-12-18T13:38:42;3.20;99.90
46217;DHT22;47258;59.424;13.482;2022-12-18T13:41:24;3.20;99.90
46217;DHT22;47258;59.424;13.482;2022-12-18T13:43:52;3.20;99.90
46217;DHT22;47258;59.424;13.482;2022-12-18T13:46:22;3.20;99.90
46217;DHT22;47258;59.424;13.482;2022-12-18T13:48:57;3.20;99.90
46217;DHT22;47258;59.424;13.482;2022-12-18T13:51:32;3.20;99.90
46217;DHT22;47258;59.424;13.482;2022-12-18T13:54:01;3.10;99.90
46217;DHT22;47258;59.424;13.482;2022-12-18T13:56:31;3.10;99.90
46217;DHT22;47258;59.424;13.482;2022-12-18T13:59:15;3.10;99.90
46217;DHT22;47258;59.424;13.482;2022-12-18T14:01:48;3.00;99.90
46217;DHT22;47258;59.424;13.482;2022-12-18T14:04:24;2.90;99.90
46217;DHT22;47258;59.424;13.482;2022-12-18T14:06:55;2.90;99.90
46217;DHT22;47258;59.424;13.482;2022-12-18T14:09:26;2.80;99.90
46217;DHT22;47258;59.424;13.482;2022-12-18T14:11:53;2.80;99.90
46217;DHT22;47258;59.424;13.482;2022-12-18T14:14:45;2.80;99.90
46217;DHT22;47258;59.424;13.482;2022-12-18T14:17:13;2.70;99.90
46217;DHT22;47258;59.424;13.482;2022-12-18T14:19:47;2.70;99.90
46217;DHT22;47258;59.424;13.482;2022-12-18T14:22:17;2.70;99.90
46217;DHT22;47258;59.424;13.482;2022-12-18T14:24:45;2.70;99.90
46217;DHT22;47258;59.424;13.482;2022-12-18T14:27:20;2.70;99.90
46217;DHT22;47258;59.424;13.482;2022-12-18T14:29:47;2.70;99.90
46217;DHT22;47258;59.424;13.482;2022-12-18T14:32:16;2.70;99.90
46217;DHT22;47258;59.424;13.482;2022-12-18T14:34:45;2.60;99.90
46217;DHT22;47258;59.424;13.482;2022-12-18T14:37:14;2.50;99.90
46217;DHT22;47258;59.424;13.482;2022-12-18T14:39:53;2.50;99.90
46217;DHT22;47258;59.424;13.482;2022-12-18T14:42:20;2.50;99.90
46217;DHT22;47258;59.424;13.482;2022-12-18T14:44:47;2.50;99.90
46217;DHT22;47258;59.424;13.482;2022-12-18T14:47:15;2.50;99.90
46217;DHT22;47258;59.424;13.482;2022-12-18T14:49:43;2.40;99.90
46217;DHT22;47258;59.424;13.482;2022-12-18T14:52:22;2.40;99.90
46217;DHT22;47258;59.424;13.482;2022-12-18T14:54:49;2.40;99.90
46217;DHT22;47258;59.424;13.482;2022-12-18T14:57:21;2.30;99.90
46217;DHT22;47258;59.424;13.482;2022-12-18T14:59:49;2.30;99.90
46217;DHT22;47258;59.424;13.482;2022-12-18T15:02:20;2.30;99.90
46217;DHT22;47258;59.424;13.482;2022-12-18T15:04:59;2.30;99.90
46217;DHT22;47258;59.424;13.482;2022-12-18T15:07:40;2.20;99.90
46217;DHT22;47258;59.424;13.482;2022-12-18T15:10:12;2.20;99.90
46217;DHT22;47258;59.424;13.482;2022-12-18T15:12:41;2.20;99.90
46217;DHT22;47258;59.424;13.482;2022-12-18T15:18:13;2.20;99.90
46217;DHT22;47258;59.424;13.482;2022-12-18T15:20:44;2.20;99.90
46217;DHT22;47258;59.424;13.482;2022-12-18T15:23:17;2.20;99.90
46217;DHT22;47258;59.424;13.482;2022-12-18T15:25:45;2.20;99.90
46217;DHT22;47258;59.424;13.482;2022-12-18T15:28:21;2.20;99.90
46217;DHT22;47258;59.424;13.482;2022-12-18T15:31:05;2.20;99.90
46217;DHT22;47258;59.424;13.482;2022-12-18T15:33:34;2.30;99.90
46217;DHT22;47258;59.424;13.482;2022-12-18T15:36:03;2.30;99.90
46217;DHT22;47258;59.424;13.482;2022-12-18T15:38:32;2.20;99.90
46217;DHT22;47258;59.424;13.482;2022-12-18T15:40:59;2.30;99.90
46217;DHT22;47258;59.424;13.482;2022-12-18T15:43:27;2.30;99.90
46217;DHT22;47258;59.424;13.482;2022-12-18T15:45:59;2.30;99.90
46217;DHT22;47258;59.424;13.482;2022-12-18T15:48:26;2.30;99.90
46217;DHT22;47258;59.424;13.482;2022-12-18T15:50:56;2.20;99.90
46217;DHT22;47258;59.424;13.482;2022-12-18T15:53:24;2.20;99.90
46217;DHT22;47258;59.424;13.482;2022-12-18T15:55:53;2.10;99.90
46217;DHT22;47258;59.424;13.482;2022-12-18T15:58:37;2.10;99.90